Time;durP1;ratioP1;P1;durP2;ratioP2;P2;SDS_P1;SDS_P2;PMS_P1;PMS_P2;Temp;Humidity;BMP_temperature;BMP_pressure;BME280_temperature;BME280_humidity;BME280_pressure;Samples;Min_cycle;Max_cycle;Signal;HPM_P1;HPM_P2
2023/12/05 00:00:27;;;;;;;19.95;12.93;;;;;;;3.95;96.43;96950.50;4186615;28;20206;-88
2023/12/05 00:02:31;;;;;;;21.90;13.02;;;;;;;3.94;96.10;96954.84;4189349;28;20213;-88
2023/12/05 00:04:36;;;;;;;18.70;14.10;;;;;;;3.94;96.96;96954.00;4187046;28;20707;-89
2023/12/05 00:06:39;;;;;;;20.40;13.30;;;;;;;3.96;96.13;96957.34;4184100;28;20313;-89
2023/12/05 00:08:44;;;;;;;21.00;12.75;;;;;;;3.96;96.60;96960.75;4188924;28;20198;-89
2023/12/05 00:10:46;;;;;;;17.60;11.20;;;;;;;3.95;96.38;96958.25;4186014;28;20255;-89
2023/12/05 00:12:49;;;;;;;18.85;12.82;;;;;;;3.95;96.99;96958.25;4188619;28;20291;-89
2023/12/05 00:14:53;;;;;;;17.08;12.32;;;;;;;3.96;95.62;96953.00;4173478;28;20232;-88
2023/12/05 00:16:56;;;;;;;21.58;13.77;;;;;;;3.96;96.57;96947.03;4177999;28;20210;-89
2023/12/05 00:18:59;;;;;;;19.23;13.07;;;;;;;3.93;96.61;96948.03;4189891;28;20749;-90
2023/12/05 00:21:03;;;;;;;17.13;11.38;;;;;;;3.91;96.56;96943.88;4175308;28;20211;-88
2023/12/05 00:23:06;;;;;;;19.05;12.88;;;;;;;3.89;96.62;96948.31;4188691;28;20676;-90
2023/12/05 00:25:12;;;;;;;18.63;11.85;;;;;;;3.91;95.92;96949.03;4188595;28;20284;-89
2023/12/05 00:27:16;;;;;;;22.77;13.25;;;;;;;3.94;96.85;96954.00;4185554;28;20215;-87
2023/12/05 00:29:18;;;;;;;18.17;12.43;;;;;;;3.96;97.66;96945.25;4191748;28;20834;-87
2023/12/05 00:31:22;;;;;;;17.70;12.65;;;;;;;3.98;97.65;96945.19;4192438;28;20962;-88
2023/12/05 00:33:25;;;;;;;18.98;12.88;;;;;;;3.99;97.09;96947.66;4189155;28;20208;-88
2023/12/05 00:35:28;;;;;;;12.40;9.00;;;;;;;4.03;96.92;96950.88;4166681;28;20206;-88
2023/12/05 00:37:31;;;;;;;12.00;7.75;;;;;;;4.11;96.58;96951.25;4189602;28;20382;-87
2023/12/05 00:39:34;;;;;;;13.80;9.00;;;;;;;4.19;97.05;96954.19;4188043;28;20249;-89
2023/12/05 00:41:39;;;;;;;12.90;8.27;;;;;;;4.27;97.49;96955.38;4189062;28;20233;-89
2023/12/05 00:43:42;;;;;;;14.07;9.32;;;;;;;4.34;97.86;96949.72;4187006;28;20197;-89
2023/12/05 00:45:45;;;;;;;16.98;11.13;;;;;;;4.34;97.58;96947.13;4184983;28;20201;-90
2023/12/05 00:47:48;;;;;;;11.35;8.13;;;;;;;4.35;96.74;96945.41;4194056;28;20202;-90
2023/12/05 00:49:52;;;;;;;12.75;7.40;;;;;;;4.42;97.30;96942.34;4186979;28;20205;-89
2023/12/05 00:51:55;;;;;;;10.30;6.78;;;;;;;4.50;97.52;96950.41;4185523;28;20609;-89
2023/12/05 00:53:59;;;;;;;9.65;6.00;;;;;;;4.57;97.95;96946.53;4183966;28;20664;-90
2023/12/05 00:56:02;;;;;;;9.35;6.10;;;;;;;4.61;96.97;96953.16;4172859;28;20222;-89
2023/12/05 00:58:07;;;;;;;9.02;5.53;;;;;;;4.70;97.02;96958.56;4192219;28;20251;-90
2023/12/05 01:00:11;;;;;;;8.65;5.45;;;;;;;4.75;97.51;96951.38;4183169;28;20210;-88
2023/12/05 01:02:15;;;;;;;10.05;6.18;;;;;;;4.79;97.04;96947.63;4184096;28;20197;-88
2023/12/05 01:04:18;;;;;;;8.45;5.43;;;;;;;4.83;98.42;96950.88;4186735;28;20201;-89
2023/12/05 01:06:21;;;;;;;9.55;5.38;;;;;;;4.88;97.06;96953.97;4188588;28;20549;-89
2023/12/05 01:08:25;;;;;;;11.07;6.15;;;;;;;4.92;98.10;96952.88;4167132;28;20218;-89
2023/12/05 01:10:28;;;;;;;8.10;5.20;;;;;;;4.95;97.13;96952.66;4184068;28;20789;-90
2023/12/05 01:12:31;;;;;;;7.28;4.78;;;;;;;4.99;97.65;96954.09;4191164;28;20239;-89
2023/12/05 01:14:36;;;;;;;7.43;5.25;;;;;;;5.04;97.61;96962.41;4186068;28;20210;-89
2023/12/05 01:16:43;;;;;;;6.82;4.18;;;;;;;5.10;96.75;96956.81;4185759;28;20210;-89
2023/12/05 01:18:46;;;;;;;7.88;5.18;;;;;;;5.14;97.08;96972.88;4191926;28;20222;-89
2023/12/05 01:20:48;;;;;;;6.78;4.57;;;;;;;5.16;96.32;96968.41;4186008;28;20198;-90
2023/12/05 01:22:51;;;;;;;6.95;4.55;;;;;;;5.21;96.35;96968.94;4180858;28;20621;-90
2023/12/05 01:24:55;;;;;;;5.78;4.10;;;;;;;5.26;97.10;96966.91;4185992;28;20202;-90
2023/12/05 01:26:58;;;;;;;8.98;5.53;;;;;;;5.28;96.20;96967.63;4188571;28;20244;-87
2023/12/05 01:29:02;;;;;;;6.95;4.65;;;;;;;5.31;96.04;96972.59;4166824;28;20325;-89
2023/12/05 01:31:07;;;;;;;8.88;5.38;;;;;;;5.34;96.49;96977.56;4185859;28;20225;-90
2023/12/05 01:33:11;;;;;;;9.07;5.25;;;;;;;5.38;96.34;96971.28;4170522;28;20309;-87
2023/12/05 01:35:14;;;;;;;9.60;6.82;;;;;;;5.39;95.84;96970.31;4185122;28;20237;-90
2023/12/05 01:37:17;;;;;;;13.82;8.55;;;;;;;5.29;95.15;96974.47;4189225;28;20236;-90
2023/12/05 01:39:21;;;;;;;12.77;8.68;;;;;;;5.18;95.38;96971.72;4168169;28;20627;-89
2023/12/05 01:41:24;;;;;;;11.07;7.95;;;;;;;5.11;94.53;96974.81;4184841;28;20201;-90
2023/12/05 01:43:27;;;;;;;13.48;9.65;;;;;;;5.06;94.47;96966.53;4190756;28;20213;-88
2023/12/05 01:45:30;;;;;;;11.18;8.43;;;;;;;5.02;94.70;96977.16;4185774;28;20661;-91
2023/12/05 01:47:36;;;;;;;13.00;9.00;;;;;;;4.95;93.75;96968.97;4185216;28;20205;-91
2023/12/05 01:49:41;;;;;;;16.13;9.07;;;;;;;4.89;94.35;96968.56;4171229;28;20240;-90
2023/12/05 01:51:43;;;;;;;14.05;9.15;;;;;;;4.85;93.43;96959.34;4184796;28;20258;-92
2023/12/05 01:53:46;;;;;;;12.98;8.60;;;;;;;4.80;94.15;96959.63;4184028;28;20198;-91
2023/12/05 01:55:50;;;;;;;10.75;6.65;;;;;;;4.79;94.48;96955.38;4168642;28;20207;-92
2023/12/05 01:57:54;;;;;;;11.90;7.88;;;;;;;4.79;94.59;96954.56;4183125;28;20258;-92
2023/12/05 01:59:58;;;;;;;7.07;5.40;;;;;;;4.79;94.21;96954.56;4185249;28;20228;-92
2023/12/05 02:02:02;;;;;;;11.25;7.10;;;;;;;4.82;95.63;96964.69;4183392;28;20212;-93
2023/12/05 02:04:06;;;;;;;10.60;6.65;;;;;;;4.82;95.53;96967.28;4191107;28;20201;-88
2023/12/05 02:06:10;;;;;;;13.95;8.93;;;;;;;4.75;95.54;96959.09;4173158;28;20207;-92
2023/12/05 02:08:17;;;;;;;11.13;7.70;;;;;;;4.67;95.27;96957.94;4184961;28;20221;-93
2023/12/05 02:10:21;;;;;;;13.38;8.95;;;;;;;4.59;95.23;96955.00;4182820;28;20237;-93
2023/12/05 02:12:24;;;;;;;13.10;8.88;;;;;;;4.53;95.61;96960.56;4172771;28;20771;-91
2023/12/05 02:14:27;;;;;;;12.52;8.15;;;;;;;4.51;95.13;96965.00;4185774;28;20209;-91
2023/12/05 02:16:33;;;;;;;12.65;8.90;;;;;;;4.46;95.41;96968.78;4169897;28;20214;-88
2023/12/05 02:18:40;;;;;;;14.80;8.50;;;;;;;4.43;95.07;96964.63;4172086;28;20293;-92
2023/12/05 02:20:48;;;;;;;11.75;8.65;;;;;;;4.40;94.39;96959.66;4185749;28;20279;-92
2023/12/05 02:23:25;;;;;;;15.35;9.07;;;;;;;4.38;94.47;96958.94;4183621;28;20219;-92
2023/12/05 02:25:40;;;;;;;14.35;9.10;;;;;;;4.37;96.01;96954.69;4186290;28;20288;-90
2023/12/05 02:27:45;;;;;;;12.50;8.25;;;;;;;4.39;95.39;96957.16;4185655;28;20205;-91
2023/12/05 02:29:49;;;;;;;12.15;8.60;;;;;;;4.37;95.59;96962.41;4184519;28;20289;-87
2023/12/05 02:31:54;;;;;;;16.65;9.75;;;;;;;4.34;95.02;96962.63;4183200;28;20305;-88
2023/12/05 02:33:57;;;;;;;15.13;10.80;;;;;;;4.35;95.92;96961.69;4171139;28;20746;-90
2023/12/05 02:36:07;;;;;;;12.52;8.15;;;;;;;4.32;94.76;96964.47;4167945;28;20772;-91
2023/12/05 02:38:13;;;;;;;12.60;8.52;;;;;;;4.34;96.34;96961.78;4180457;28;20297;-89
2023/12/05 02:40:21;;;;;;;13.95;9.23;;;;;;;4.32;95.82;96956.72;4192733;28;20226;-89
2023/12/05 02:42:26;;;;;;;13.20;9.13;;;;;;;4.29;95.94;96956.91;4173539;28;20241;-90
2023/12/05 02:44:37;;;;;;;16.95;9.73;;;;;;;4.29;95.30;96962.06;4191692;28;20213;-90
2023/12/05 02:46:42;;;;;;;15.23;9.27;;;;;;;4.30;95.70;96963.75;4186202;28;20316;-90
2023/12/05 02:48:45;;;;;;;11.75;8.32;;;;;;;4.30;95.30;96952.56;4187405;28;20237;-90
2023/12/05 02:50:49;;;;;;;13.07;9.40;;;;;;;4.31;95.52;96960.22;4187843;28;20198;-90
2023/12/05 02:52:52;;;;;;;12.55;9.15;;;;;;;4.29;94.68;96967.25;4187746;28;20201;-90
2023/12/05 02:54:56;;;;;;;11.85;8.68;;;;;;;4.25;94.96;96949.47;4190511;28;20292;-92
2023/12/05 02:56:59;;;;;;;13.70;8.75;;;;;;;4.21;96.11;96958.34;4188253;28;20206;-91
2023/12/05 02:59:03;;;;;;;17.15;9.20;;;;;;;4.19;95.08;96954.19;4189273;28;20324;-92
2023/12/05 03:01:08;;;;;;;14.15;9.10;;;;;;;4.19;94.89;96954.19;4187574;28;20321;-95
2023/12/05 03:03:11;;;;;;;11.40;8.20;;;;;;;4.18;95.67;96957.66;4191459;28;20259;-89
2023/12/05 03:05:14;;;;;;;14.43;8.15;;;;;;;4.18;95.39;96955.94;4187923;28;20201;-90
2023/12/05 03:07:18;;;;;;;14.38;9.52;;;;;;;4.09;95.89;96953.06;4175941;28;20241;-90
2023/12/05 03:09:21;;;;;;;14.13;9.43;;;;;;;4.00;96.13;96961.38;4183395;28;20301;-89
2023/12/05 03:11:24;;;;;;;15.10;9.35;;;;;;;4.00;95.94;96969.97;4186355;28;20257;-90
2023/12/05 03:13:27;;;;;;;11.55;8.05;;;;;;;3.95;95.57;96968.56;4182774;28;20298;-88
2023/12/05 03:15:32;;;;;;;11.32;8.70;;;;;;;3.94;96.08;96982.38;4187239;28;20248;-87
2023/12/05 03:17:37;;;;;;;12.35;9.02;;;;;;;3.93;96.21;96983.31;4196910;28;20292;-89
2023/12/05 03:19:41;;;;;;;16.02;9.68;;;;;;;3.91;95.58;96979.97;4182906;28;20608;-89
2023/12/05 03:21:43;;;;;;;13.75;9.32;;;;;;;3.89;96.12;96981.81;4190918;28;20198;-89
2023/12/05 03:23:46;;;;;;;12.98;8.95;;;;;;;3.89;96.41;96986.97;4188380;28;20679;-86
2023/12/05 03:25:49;;;;;;;14.65;8.75;;;;;;;3.92;96.15;96982.47;4191069;28;20228;-89
2023/12/05 03:27:52;;;;;;;15.30;8.60;;;;;;;3.95;95.51;96991.78;4185786;28;20209;-88
2023/12/05 03:29:55;;;;;;;13.60;9.10;;;;;;;3.97;96.19;96990.78;4193327;28;20218;-88
2023/12/05 03:31:59;;;;;;;11.75;8.13;;;;;;;3.99;96.82;96990.69;4188862;28;20785;-89
2023/12/05 03:34:03;;;;;;;15.27;8.90;;;;;;;4.03;96.78;96984.41;4183767;28;20625;-89
2023/12/05 03:36:06;;;;;;;14.18;7.85;;;;;;;4.04;96.41;96986.88;4185041;28;20684;-88
2023/12/05 03:38:11;;;;;;;15.85;8.63;;;;;;;4.06;96.93;96989.38;4190669;28;20292;-89
2023/12/05 03:40:14;;;;;;;14.70;9.18;;;;;;;4.04;96.42;96992.03;4174658;28;20234;-90
2023/12/05 03:42:18;;;;;;;13.93;9.48;;;;;;;4.07;96.98;96991.03;4190066;28;20201;-87
2023/12/05 03:44:21;;;;;;;11.00;7.32;;;;;;;4.09;97.07;96986.59;4170758;28;20767;-90
2023/12/05 03:46:24;;;;;;;13.68;8.63;;;;;;;4.10;96.66;96985.69;4191160;28;20202;-88
2023/12/05 03:48:29;;;;;;;13.60;8.45;;;;;;;4.11;96.97;96995.91;4187492;28;20218;-90
2023/12/05 03:50:36;;;;;;;12.60;8.20;;;;;;;4.11;95.48;96982.19;4190781;28;20230;-93
2023/12/05 03:52:40;;;;;;;14.40;8.27;;;;;;;4.14;96.11;96995.72;4170601;28;20209;-92
2023/12/05 03:54:42;;;;;;;12.32;8.82;;;;;;;4.12;96.30;96994.16;4186656;28;20229;-93
2023/12/05 03:56:45;;;;;;;11.98;8.52;;;;;;;4.12;96.92;96995.00;4185801;28;20304;-91
2023/12/05 03:58:48;;;;;;;13.63;8.82;;;;;;;4.13;96.19;96995.81;4167451;28;20214;-90
2023/12/05 04:00:52;;;;;;;15.05;9.07;;;;;;;4.13;95.98;96994.06;4186951;28;20229;-91
2023/12/05 04:02:55;;;;;;;13.13;8.73;;;;;;;4.16;96.27;96990.47;4186408;28;20202;-92
2023/12/05 04:04:59;;;;;;;12.40;9.07;;;;;;;4.16;95.82;97000.81;4169505;28;20202;-91
2023/12/05 04:07:04;;;;;;;13.32;8.20;;;;;;;4.16;96.49;96998.22;4173023;28;20667;-91
2023/12/05 04:09:08;;;;;;;11.80;7.32;;;;;;;4.15;96.46;96994.81;4188041;28;20220;-89
2023/12/05 04:11:11;;;;;;;11.30;8.00;;;;;;;4.15;95.84;96993.97;4187493;28;20197;-90
2023/12/05 04:13:14;;;;;;;11.52;7.90;;;;;;;4.16;96.34;96982.75;4191952;28;20220;-88
2023/12/05 04:15:18;;;;;;;13.32;8.70;;;;;;;4.17;95.45;96987.81;4173856;28;20194;-88
2023/12/05 04:17:20;;;;;;;15.10;9.20;;;;;;;4.20;96.35;96991.97;4189929;28;20210;-90
2023/12/05 04:19:23;;;;;;;11.90;8.70;;;;;;;4.19;96.50;96980.78;4177555;28;20202;-91
2023/12/05 04:21:26;;;;;;;15.98;8.63;;;;;;;4.18;96.00;96992.06;4189776;28;20218;-91
2023/12/05 04:23:31;;;;;;;14.20;8.60;;;;;;;4.19;96.28;96987.72;4188482;28;20206;-90
2023/12/05 04:25:34;;;;;;;5.72;3.90;;;;;;;4.20;97.87;96993.59;4185278;28;20209;-93
2023/12/05 04:27:38;;;;;;;6.65;4.45;;;;;;;4.30;98.36;96989.53;4200364;28;20249;-93
2023/12/05 04:29:43;;;;;;;7.43;5.45;;;;;;;4.39;97.54;96991.56;4184941;28;20617;-88
2023/12/05 04:31:46;;;;;;;12.32;7.28;;;;;;;4.40;98.73;96998.34;4191101;28;20279;-93
2023/12/05 04:33:49;;;;;;;12.60;7.85;;;;;;;4.40;97.42;97005.28;4172556;28;20207;-91
2023/12/05 04:35:51;;;;;;;11.55;8.48;;;;;;;4.40;98.05;96994.97;4173990;28;20230;-90
2023/12/05 04:37:54;;;;;;;12.85;8.43;;;;;;;4.38;97.70;96997.63;4188808;28;20246;-91
2023/12/05 04:39:59;;;;;;;12.18;8.25;;;;;;;4.37;96.87;96998.56;4185482;28;20202;-92
2023/12/05 04:42:02;;;;;;;11.93;8.60;;;;;;;4.36;95.60;96994.34;4188839;28;20218;-91
2023/12/05 04:44:04;;;;;;;10.27;6.90;;;;;;;4.33;96.41;96989.34;4167613;28;20222;-93
2023/12/05 04:46:08;;;;;;;10.80;7.30;;;;;;;4.29;96.38;96993.03;4184345;28;20297;-93
2023/12/05 04:48:11;;;;;;;11.27;8.50;;;;;;;4.32;95.87;96990.28;4194980;28;20672;-95
2023/12/05 04:50:15;;;;;;;10.82;7.93;;;;;;;4.30;95.73;96994.72;4188439;28;20229;-90
2023/12/05 04:52:18;;;;;;;11.93;7.80;;;;;;;4.30;96.42;96988.69;4185236;28;20288;-93
2023/12/05 04:54:21;;;;;;;10.73;7.35;;;;;;;4.29;96.15;96987.88;4186066;28;20198;-95
2023/12/05 04:56:26;;;;;;;11.07;7.35;;;;;;;4.27;97.00;96988.91;4174054;28;20222;-91
2023/12/05 04:58:29;;;;;;;11.18;7.75;;;;;;;4.25;96.39;96986.44;4191502;28;20212;-94
2023/12/05 05:00:32;;;;;;;11.32;7.97;;;;;;;4.27;96.62;96992.31;4169831;28;20249;-93
2023/12/05 05:02:36;;;;;;;14.45;7.53;;;;;;;4.26;96.29;96982.91;4170573;28;20249;-92
2023/12/05 05:04:40;;;;;;;10.85;7.57;;;;;;;4.27;96.22;96984.56;4172422;28;20214;-90
2023/12/05 05:06:43;;;;;;;11.48;6.70;;;;;;;4.28;97.21;96980.22;4185266;28;20241;-87
2023/12/05 05:08:47;;;;;;;11.10;7.72;;;;;;;4.29;96.95;96981.91;4183584;28;20239;-88
2023/12/05 05:10:49;;;;;;;10.43;7.93;;;;;;;4.28;97.42;96981.09;4187367;28;20202;-90
2023/12/05 05:12:53;;;;;;;12.05;7.80;;;;;;;4.25;97.12;96985.56;4181268;28;20695;-90
2023/12/05 05:14:57;;;;;;;13.75;8.57;;;;;;;4.22;96.33;96990.94;4169870;28;20204;-91
2023/12/05 05:17:01;;;;;;;13.27;8.40;;;;;;;4.23;96.50;96983.09;4183425;28;20566;-92
2023/12/05 05:19:05;;;;;;;13.40;9.07;;;;;;;4.24;96.97;96979.59;4189421;28;20193;-93
2023/12/05 05:21:08;;;;;;;12.80;8.50;;;;;;;4.26;97.10;96989.81;4170947;28;20245;-93
2023/12/05 05:23:11;;;;;;;17.38;9.07;;;;;;;4.27;95.96;96989.72;4190124;28;20210;-89
2023/12/05 05:25:15;;;;;;;13.40;8.38;;;;;;;4.26;95.87;96993.22;4184889;28;20206;-90
2023/12/05 05:27:19;;;;;;;12.50;8.63;;;;;;;4.21;96.43;96995.25;4183102;28;20206;-90
2023/12/05 05:29:24;;;;;;;14.32;8.15;;;;;;;4.20;96.79;96993.59;4186359;28;20656;-90
2023/12/05 05:31:27;;;;;;;13.18;8.27;;;;;;;4.21;95.75;96990.09;4172681;28;20317;-90
2023/12/05 05:33:31;;;;;;;12.60;7.93;;;;;;;4.18;96.35;96989.47;4170649;28;20668;-90
2023/12/05 05:35:34;;;;;;;11.35;7.82;;;;;;;4.20;97.26;96995.34;4169466;28;20672;-88
2023/12/05 05:37:37;;;;;;;13.60;8.80;;;;;;;4.23;96.47;96996.00;4191688;28;20210;-88
2023/12/05 05:39:43;;;;;;;12.90;8.23;;;;;;;4.23;97.07;96997.75;4186247;28;20268;-89
2023/12/05 05:41:46;;;;;;;13.48;8.75;;;;;;;4.22;95.99;96996.09;4183428;28;20221;-88
2023/12/05 05:43:49;;;;;;;12.60;8.43;;;;;;;4.21;96.39;96995.25;4182068;28;20224;-88
2023/12/05 05:45:52;;;;;;;13.25;9.13;;;;;;;4.20;96.38;96998.75;4183379;28;20577;-88
2023/12/05 05:47:56;;;;;;;12.30;9.00;;;;;;;4.19;96.53;96998.03;4184481;28;20205;-88
2023/12/05 05:49:59;;;;;;;12.30;8.82;;;;;;;4.15;96.60;96993.97;4190814;28;20301;-88
2023/12/05 05:52:07;;;;;;;12.45;8.00;;;;;;;4.11;96.19;96998.50;4183315;28;20197;-88
2023/12/05 05:54:10;;;;;;;11.40;7.80;;;;;;;4.11;95.23;97002.84;4188831;28;20209;-89
2023/12/05 05:56:13;;;;;;;15.30;8.20;;;;;;;4.10;95.96;97001.16;4182111;28;20710;-86
2023/12/05 05:58:17;;;;;;;10.80;7.60;;;;;;;4.08;96.21;97003.03;4184821;28;20241;-86
2023/12/05 06:00:20;;;;;;;12.82;8.23;;;;;;;4.08;95.42;97011.56;4185603;28;20213;-87
2023/12/05 06:02:25;;;;;;;29.10;16.92;;;;;;;4.08;96.18;97005.59;4186873;28;20251;-88
2023/12/05 06:04:28;;;;;;;11.35;8.23;;;;;;;4.05;95.86;96995.47;4183993;28;20206;-88
2023/12/05 06:06:32;;;;;;;12.75;7.82;;;;;;;4.03;96.38;96999.88;4185165;28;20194;-88
2023/12/05 06:08:36;;;;;;;14.13;8.05;;;;;;;3.99;96.47;96999.22;4182858;28;20205;-88
2023/12/05 06:10:39;;;;;;;15.35;8.40;;;;;;;3.97;96.22;97005.41;4188929;28;20232;-87
2023/12/05 06:12:42;;;;;;;14.15;8.00;;;;;;;3.96;95.83;97006.34;4190267;28;20268;-87
2023/12/05 06:14:45;;;;;;;11.25;6.88;;;;;;;3.96;96.05;97009.72;4186100;28;20218;-88
2023/12/05 06:16:47;;;;;;;9.20;6.40;;;;;;;4.00;95.65;97015.53;4185133;28;20221;-87
2023/12/05 06:18:52;;;;;;;12.32;7.88;;;;;;;4.07;96.36;97011.66;4186538;28;20624;-85
2023/12/05 06:20:57;;;;;;;9.60;6.85;;;;;;;4.14;97.74;97012.97;4174786;28;20689;-88
2023/12/05 06:22:59;;;;;;;12.57;7.47;;;;;;;4.17;98.21;97010.22;4175545;28;20743;-86
2023/12/05 06:25:03;;;;;;;11.38;6.57;;;;;;;4.16;97.60;97024.84;4188829;28;20665;-86
2023/12/05 06:27:06;;;;;;;12.25;7.63;;;;;;;4.17;96.92;97016.19;4189239;28;20202;-87
2023/12/05 06:29:10;;;;;;;14.05;8.23;;;;;;;4.17;97.48;97018.75;4190474;28;20228;-88
2023/12/05 06:31:13;;;;;;;12.00;8.30;;;;;;;4.14;96.76;97023.28;4174692;28;20589;-87
2023/12/05 06:33:17;;;;;;;10.85;7.85;;;;;;;4.15;96.93;97030.09;4191935;28;20225;-88
2023/12/05 06:35:22;;;;;;;11.18;7.63;;;;;;;4.11;96.60;97011.41;4172734;28;20301;-86
2023/12/05 06:37:25;;;;;;;14.13;8.20;;;;;;;4.13;96.61;97019.03;4189701;28;20248;-87
2023/12/05 06:39:29;;;;;;;9.48;6.72;;;;;;;4.14;96.01;97023.28;4193018;28;20292;-87
2023/12/05 06:41:32;;;;;;;16.83;10.70;;;;;;;4.12;96.51;97030.25;4186986;28;20210;-88
2023/12/05 06:43:35;;;;;;;11.93;7.63;;;;;;;4.11;96.45;97026.06;4187665;28;20233;-86
2023/12/05 06:45:39;;;;;;;11.73;8.23;;;;;;;4.14;97.03;97033.59;4188372;28;20240;-88
2023/12/05 06:47:42;;;;;;;12.50;8.13;;;;;;;4.16;97.36;97034.34;4187036;28;20209;-87
2023/12/05 06:49:47;;;;;;;9.55;6.82;;;;;;;4.20;97.34;97038.41;4188157;28;20680;-87
2023/12/05 06:51:56;;;;;;;10.32;4.28;;;;;;;4.23;99.32;97033.88;4186805;28;20661;-88
2023/12/05 06:54:00;;;;;;;8.50;5.25;;;;;;;4.35;98.83;97040.88;4190996;28;20228;-87
2023/12/05 06:56:04;;;;;;;14.23;12.82;;;;;;;4.42;97.96;97047.28;4180543;28;20225;-87
2023/12/05 06:58:07;;;;;;;8.82;6.93;;;;;;;4.41;98.30;97043.91;4194610;28;20209;-88
2023/12/05 07:00:12;;;;;;;7.13;6.25;;;;;;;4.46;98.01;97048.78;4192434;28;20208;-87
2023/12/05 07:02:15;;;;;;;6.38;4.45;;;;;;;4.47;97.34;97053.84;4187930;28;20230;-86
2023/12/05 07:04:19;;;;;;;7.55;5.55;;;;;;;4.52;98.44;97056.97;4178241;28;21604;-87
2023/12/05 07:06:22;;;;;;;7.25;4.70;;;;;;;4.57;98.12;97057.53;4177576;28;20213;-87
2023/12/05 07:08:27;;;;;;;6.78;4.95;;;;;;;4.62;97.70;97052.09;4193056;28;20276;-87
2023/12/05 07:10:32;;;;;;;7.53;5.65;;;;;;;4.68;97.92;97055.13;4175709;28;20288;-88
2023/12/05 07:12:35;;;;;;;7.78;5.85;;;;;;;4.70;97.72;97055.84;4190462;28;20212;-88
2023/12/05 07:14:39;;;;;;;14.27;11.10;;;;;;;4.69;97.09;97061.91;4189380;28;20202;-91
2023/12/05 07:16:42;;;;;;;16.83;10.10;;;;;;;4.68;97.62;97068.84;4188909;28;20216;-92
2023/12/05 07:18:45;;;;;;;14.43;10.70;;;;;;;4.65;97.45;97070.78;4189972;28;20744;-92
2023/12/05 07:20:48;;;;;;;16.02;10.20;;;;;;;4.65;96.76;97070.78;4170212;28;20207;-89
2023/12/05 07:22:51;;;;;;;25.50;16.58;;;;;;;4.62;96.38;97081.31;4175723;28;20233;-89
2023/12/05 07:24:56;;;;;;;13.18;9.00;;;;;;;4.62;96.51;97083.06;4190484;28;20198;-89
2023/12/05 07:26:59;;;;;;;14.02;6.80;;;;;;;4.61;96.40;97092.53;4185714;28;20210;-90
2023/12/05 07:29:02;;;;;;;10.65;7.93;;;;;;;4.61;96.33;97083.97;4174507;28;20205;-89
2023/12/05 07:31:06;;;;;;;13.10;7.05;;;;;;;4.65;95.87;97086.28;4188420;28;20236;-88
2023/12/05 07:33:09;;;;;;;12.75;7.63;;;;;;;4.73;96.69;97097.78;4192466;28;20759;-92
2023/12/05 07:35:13;;;;;;;11.18;7.22;;;;;;;4.78;95.74;97098.34;4201822;28;20264;-95
2023/12/05 07:37:16;;;;;;;24.30;19.90;;;;;;;4.84;96.29;97094.53;4190376;28;20278;-89
2023/12/05 07:39:19;;;;;;;10.55;6.50;;;;;;;4.92;96.34;97095.72;4181203;28;20191;-88
2023/12/05 07:41:23;;;;;;;11.38;7.40;;;;;;;4.96;96.81;97097.22;4188770;28;20214;-88
2023/12/05 07:43:27;;;;;;;10.10;7.40;;;;;;;4.98;96.12;97102.28;4189419;28;20247;-89
2023/12/05 07:45:30;;;;;;;10.95;7.57;;;;;;;4.94;96.24;97105.97;4189263;28;20596;-88
2023/12/05 07:47:33;;;;;;;10.20;7.03;;;;;;;4.91;95.77;97108.75;4188160;28;20212;-92
2023/12/05 07:49:36;;;;;;;10.40;6.90;;;;;;;4.90;96.11;97107.94;4191399;28;20270;-90
2023/12/05 07:51:39;;;;;;;9.38;5.35;;;;;;;4.84;95.86;97100.56;4190142;28;20626;-91
2023/12/05 07:53:42;;;;;;;13.00;7.55;;;;;;;4.89;95.85;97110.59;4186874;28;20773;-90
2023/12/05 07:55:45;;;;;;;10.23;6.97;;;;;;;4.91;96.00;97113.91;4192060;28;20197;-91
2023/12/05 07:57:50;;;;;;;16.20;9.68;;;;;;;4.93;95.43;97120.66;4191932;28;20194;-91
2023/12/05 07:59:54;;;;;;;15.80;10.90;;;;;;;4.97;95.24;97118.69;4187755;28;20375;-92
2023/12/05 08:01:57;;;;;;;18.38;12.10;;;;;;;4.97;95.30;97109.19;4189270;28;20205;-91
2023/12/05 08:04:02;;;;;;;15.65;11.48;;;;;;;5.00;96.33;97115.94;4185206;28;23646;-91
2023/12/05 08:06:06;;;;;;;15.30;10.50;;;;;;;5.00;96.32;97110.75;4171787;28;20271;-94
2023/12/05 08:08:09;;;;;;;14.18;10.60;;;;;;;5.03;96.25;97115.75;4191324;28;20201;-93
2023/12/05 08:10:13;;;;;;;15.20;8.40;;;;;;;5.05;95.37;97113.88;4193332;28;20244;-91
2023/12/05 08:12:16;;;;;;;9.85;5.82;;;;;;;5.11;96.18;97118.66;4193157;28;20197;-92
2023/12/05 08:14:21;;;;;;;7.40;5.20;;;;;;;5.20;96.12;97119.75;4176928;28;20199;-91
2023/12/05 08:16:24;;;;;;;4.97;3.20;;;;;;;5.31;96.77;97129.41;4187217;28;20198;-92
2023/12/05 08:18:27;;;;;;;5.35;3.35;;;;;;;5.42;96.56;97129.56;4189085;28;20296;-92
2023/12/05 08:20:31;;;;;;;4.53;3.28;;;;;;;5.50;96.71;97125.53;4189885;28;20232;-93
2023/12/05 08:22:34;;;;;;;6.38;4.00;;;;;;;5.60;96.50;97123.22;4187852;28;20251;-93
2023/12/05 08:24:38;;;;;;;4.53;3.40;;;;;;;5.68;96.29;97121.78;4186162;28;20253;-91
2023/12/05 08:26:41;;;;;;;4.65;3.38;;;;;;;5.78;96.47;97126.28;4191334;28;20236;-93
2023/12/05 08:28:43;;;;;;;3.70;2.40;;;;;;;5.90;95.93;97133.25;4171360;28;20225;-94
2023/12/05 08:30:48;;;;;;;3.67;2.45;;;;;;;6.06;95.50;97128.75;4187599;28;20205;-93
2023/12/05 08:32:51;;;;;;;5.78;2.60;;;;;;;6.19;95.82;97130.44;4201425;28;20209;-92
2023/12/05 08:34:54;;;;;;;9.75;5.20;;;;;;;6.29;95.16;97133.22;4191392;28;20220;-93
2023/12/05 08:36:58;;;;;;;11.35;6.53;;;;;;;6.25;94.50;97132.56;4187249;28;20203;-91
2023/12/05 08:39:01;;;;;;;13.32;7.63;;;;;;;6.21;94.19;97133.72;4186320;28;20696;-93
2023/12/05 08:41:05;;;;;;;10.15;8.18;;;;;;;6.22;94.20;97132.81;4183837;28;20202;-92
2023/12/05 08:43:10;;;;;;;13.27;7.65;;;;;;;6.35;93.44;97140.59;4190655;28;20200;-93
2023/12/05 08:45:13;;;;;;;13.70;8.30;;;;;;;6.45;94.29;97132.09;4187155;28;20620;-89
2023/12/05 08:47:18;;;;;;;11.68;8.02;;;;;;;6.55;93.94;97142.66;4184344;28;20206;-91
2023/12/05 08:49:21;;;;;;;9.95;6.78;;;;;;;6.79;94.21;97147.00;4189167;28;20222;-92
2023/12/05 08:51:25;;;;;;;10.85;7.72;;;;;;;6.92;93.23;97143.44;4167230;28;20253;-92
2023/12/05 08:53:28;;;;;;;10.18;7.25;;;;;;;7.03;92.17;97151.31;4176339;28;20198;-93
2023/12/05 08:55:31;;;;;;;13.48;7.70;;;;;;;7.16;91.97;97155.53;4186403;28;20213;-92
2023/12/05 08:57:35;;;;;;;10.93;7.97;;;;;;;7.24;91.39;97155.81;4174595;28;20221;-92
2023/12/05 08:59:38;;;;;;;11.57;6.55;;;;;;;7.39;91.50;97154.72;4184942;28;20613;-94
2023/12/05 09:01:42;;;;;;;8.60;6.43;;;;;;;7.52;91.80;97156.34;4190433;28;20297;-95
2023/12/05 09:03:46;;;;;;;12.32;7.13;;;;;;;7.61;92.22;97160.06;4191637;28;20219;-92
2023/12/05 09:05:50;;;;;;;10.68;6.80;;;;;;;7.68;90.77;97163.88;4193561;28;20228;-92
2023/12/05 09:07:54;;;;;;;8.68;6.72;;;;;;;7.62;90.15;97157.38;4187292;28;20244;-92
2023/12/05 09:09:58;;;;;;;9.43;7.20;;;;;;;7.56;90.74;97160.41;4191365;28;20201;-91
2023/12/05 09:12:01;;;;;;;10.85;7.30;;;;;;;7.59;92.19;97161.91;4194229;28;20206;-92
2023/12/05 09:14:05;;;;;;;12.27;7.63;;;;;;;7.60;91.35;97163.59;4176704;28;20198;-90
2023/12/05 09:16:09;;;;;;;14.27;8.45;;;;;;;7.56;90.56;97170.78;4175940;28;20203;-92
2023/12/05 09:18:13;;;;;;;10.23;7.60;;;;;;;7.52;90.84;97161.53;4174545;28;20212;-96
2023/12/05 09:20:18;;;;;;;10.38;8.60;;;;;;;7.55;91.13;97171.69;4184810;28;20720;-91
2023/12/05 09:22:21;;;;;;;10.85;8.57;;;;;;;7.52;89.80;97163.31;4189728;28;20648;-92
2023/12/05 09:24:28;;;;;;;10.13;7.20;;;;;;;7.47;91.75;97167.97;4169260;28;20770;-93
2023/12/05 09:26:31;;;;;;;10.35;6.88;;;;;;;7.62;91.75;97164.28;4170816;28;20248;-91
2023/12/05 09:28:34;;;;;;;10.50;7.53;;;;;;;7.78;92.02;97172.66;4184582;28;20370;-92
2023/12/05 09:30:38;;;;;;;7.47;4.90;;;;;;;7.98;90.72;97171.09;4188136;28;20244;-93
2023/12/05 09:32:41;;;;;;;5.75;2.80;;;;;;;8.22;89.49;97184.09;4189217;28;20207;-94
2023/12/05 09:34:44;;;;;;;2.80;1.40;;;;;;;8.26;87.74;97164.75;4189103;28;20212;-92
2023/12/05 09:36:49;;;;;;;3.20;1.33;;;;;;;8.22;86.81;97171.09;4177247;28;20277;-89
2023/12/05 09:38:51;;;;;;;2.20;1.20;;;;;;;8.23;85.94;97177.97;4186741;28;20586;-93
2023/12/05 09:40:56;;;;;;;2.83;1.30;;;;;;;8.21;86.50;97178.06;4184169;28;20268;-93
2023/12/05 09:43:00;;;;;;;1.95;1.20;;;;;;;8.19;86.76;97174.72;4191115;28;20201;-93